Portada
METAR-TAF:

METAR-TAF

Aeroports :

Rabat, Marroc

Aeroport de Rabat

latitud: 34-03N, longitud: 006-46W, altitud: 84 m

Observació

L'informe es va fer fa 13 minuts, a les 21:30 UTC
Vent 2 kt amb direcció variable
Temperatura 14°C
Humitat 77%
Pressió 1014 hPa
Visibilitat: 8000 m

METAR: GMME 222130Z VRB02KT 8000 NSC 14/10 Q1014 NOSIG

Hora: 22:43 (21:43 UTC)

Pronòstic

L'informe es va fer fa 4 hores i 43 minuts, a les 17:00 UTC
Pronòstic vàlid del 22 a les 18 UTC al 23 a les 24 UTC
Vent 9 kt del Nord
Visibilitat: 8000 m
Evolucionant progressivament
l' 23 a les 09 UTC al 23 a les 11 UTC
Vent 10 kt del Oest/Sud-Oest amb ràfegues de 20 kt

TAF: GMME 221700Z 2218/2324 35009KT 8000 NSC BECMG 2309/2311 24010G20KT

Observacions i pronòstics meteorològics de més de 4000 aeroports (METAR i TAF).

Les estacions disponibles són els punts grocs i vermells al mapa.

Posi el ratolí al punt desitjat per veure el nom de l'estació.

Feu clic per veure les observacions i els pronòstics meteorològics.

Per canviar el mapa: feu clic els botons verds amb una creu de color negre per apropar; al botó verd amb un guió per allunyar la imatge; o en les fletxes verdes per a mapes adjacents.


METAR-TAF: